Time;durP1;ratioP1;P1;durP2;ratioP2;P2;SDS_P1;SDS_P2;PMS_P1;PMS_P2;Temp;Humidity;BMP_temperature;BMP_pressure;BME280_temperature;BME280_humidity;BME280_pressure;Samples;Min_cycle;Max_cycle;Signal;HPM_P1;HPM_P2
2023/06/13 00:02:13;;;;;;;;;;;17.40;74.20;;;;;;5073015;28;20024;-67
2023/06/13 00:04:43;;;;;;;;;;;17.40;74.20;;;;;;5079319;28;20465;-67
2023/06/13 00:07:15;;;;;;;;;;;17.30;74.40;;;;;;5079967;28;19931;-67
2023/06/13 00:09:47;;;;;;;;;;;17.30;74.80;;;;;;5078782;28;20452;-67
2023/06/13 00:12:20;;;;;;;;;;;17.20;74.90;;;;;;5080812;28;19930;-67
2023/06/13 00:14:50;;;;;;;;;;;17.20;75.20;;;;;;5077606;28;19924;-67
2023/06/13 00:17:25;;;;;;;;;;;17.10;75.50;;;;;;5075781;28;19939;-67
2023/06/13 00:19:56;;;;;;;;;;;17.00;75.80;;;;;;5071592;28;19942;-67
2023/06/13 00:22:28;;;;;;;;;;;17.00;76.00;;;;;;5076836;28;19924;-67
2023/06/13 00:25:00;;;;;;;;;;;16.90;76.30;;;;;;5072174;28;19928;-67
2023/06/13 00:27:32;;;;;;;;;;;16.90;76.70;;;;;;5077663;28;19943;-67
2023/06/13 00:30:06;;;;;;;;;;;16.80;76.70;;;;;;5076286;28;19928;-67
2023/06/13 00:32:38;;;;;;;;;;;16.70;77.10;;;;;;5081326;28;20442;-67
2023/06/13 00:35:08;;;;;;;;;;;16.70;77.10;;;;;;5079664;28;19932;-67
2023/06/13 00:37:40;;;;;;;;;;;16.70;77.00;;;;;;5080550;28;20383;-67
2023/06/13 00:40:12;;;;;;;;;;;16.70;77.40;;;;;;5075394;28;19930;-67
2023/06/13 00:42:39;;;;;;;;;;;16.60;77.70;;;;;;5075031;28;20026;-67
2023/06/13 00:45:20;;;;;;;;;;;16.50;78.20;;;;;;5073063;28;19930;-67
2023/06/13 00:48:01;;;;;;;;;;;16.40;78.40;;;;;;5096214;28;20014;-67
2023/06/13 00:50:30;;;;;;;;;;;16.40;78.40;;;;;;5075275;28;19985;-67
2023/06/13 00:52:58;;;;;;;;;;;16.40;78.80;;;;;;5085955;28;19935;-67
2023/06/13 00:55:30;;;;;;;;;;;16.40;78.90;;;;;;5075388;28;20319;-67
2023/06/13 00:58:06;;;;;;;;;;;16.40;78.90;;;;;;5083853;28;19935;-67
2023/06/13 01:00:39;;;;;;;;;;;16.30;79.00;;;;;;5076639;28;19924;-67
2023/06/13 01:03:14;;;;;;;;;;;16.30;79.30;;;;;;5075611;28;19931;-67
2023/06/13 01:05:47;;;;;;;;;;;16.30;79.20;;;;;;5094268;28;19924;-67
2023/06/13 01:08:23;;;;;;;;;;;16.30;79.50;;;;;;5072358;28;19924;-67
2023/06/13 01:10:59;;;;;;;;;;;16.20;79.80;;;;;;5085180;28;19963;-67
2023/06/13 01:13:40;;;;;;;;;;;16.30;80.20;;;;;;5070020;28;19931;-67
2023/06/13 01:16:15;;;;;;;;;;;16.30;80.10;;;;;;5069657;28;20014;-67
2023/06/13 01:18:49;;;;;;;;;;;16.30;80.30;;;;;;5059689;28;20018;-67
2023/06/13 01:21:21;;;;;;;;;;;16.20;80.40;;;;;;5082671;28;19935;-67
2023/06/13 01:24:07;;;;;;;;;;;16.20;80.80;;;;;;5078159;28;19931;-67
2023/06/13 01:26:40;;;;;;;;;;;16.20;81.20;;;;;;5095322;28;19931;-67
2023/06/13 01:29:17;;;;;;;;;;;16.10;81.60;;;;;;5064109;28;20011;-67
2023/06/13 01:31:52;;;;;;;;;;;16.00;82.20;;;;;;5068244;28;19925;-67
2023/06/13 01:34:24;;;;;;;;;;;16.00;82.50;;;;;;5068361;28;19925;-67
2023/06/13 01:36:57;;;;;;;;;;;16.00;82.80;;;;;;5070340;28;19925;-67
2023/06/13 01:39:32;;;;;;;;;;;15.90;83.20;;;;;;5068622;28;19940;-67
2023/06/13 01:41:59;;;;;;;;;;;15.90;83.30;;;;;;5103105;28;19928;-67
2023/06/13 01:44:28;;;;;;;;;;;15.80;83.50;;;;;;5088325;28;19932;-67
2023/06/13 01:47:08;;;;;;;;;;;15.70;83.80;;;;;;5084471;28;19932;-67
2023/06/13 01:49:43;;;;;;;;;;;15.70;84.40;;;;;;5099097;28;19928;-67
2023/06/13 01:52:32;;;;;;;;;;;15.60;84.90;;;;;;5081632;28;20365;-67
2023/06/13 01:55:08;;;;;;;;;;;15.50;85.00;;;;;;5065894;28;19925;-67
2023/06/13 01:57:43;;;;;;;;;;;15.50;85.30;;;;;;5068602;28;19931;-67
2023/06/13 02:00:11;;;;;;;;;;;15.40;85.40;;;;;;5068419;28;19925;-67
2023/06/13 02:02:45;;;;;;;;;;;15.40;85.60;;;;;;5086819;28;19928;-67
2023/06/13 02:05:18;;;;;;;;;;;15.40;86.00;;;;;;5075379;28;20349;-67
2023/06/13 02:07:47;;;;;;;;;;;15.40;86.40;;;;;;5077092;28;19935;-67
2023/06/13 02:10:19;;;;;;;;;;;15.40;86.40;;;;;;5077717;28;19935;-66
2023/06/13 02:12:46;;;;;;;;;;;15.30;86.40;;;;;;5079679;28;19928;-67
2023/06/13 02:15:19;;;;;;;;;;;15.20;86.70;;;;;;5064949;28;19927;-67
2023/06/13 02:17:51;;;;;;;;;;;15.20;87.50;;;;;;5075225;28;19931;-67
2023/06/13 02:20:22;;;;;;;;;;;15.10;87.70;;;;;;5080198;28;19999;-66
2023/06/13 02:22:49;;;;;;;;;;;15.10;88.00;;;;;;5082239;28;19934;-66
2023/06/13 02:25:22;;;;;;;;;;;15.00;88.30;;;;;;5080668;28;20023;-67
2023/06/13 02:27:53;;;;;;;;;;;15.00;88.60;;;;;;5072514;28;19967;-67
2023/06/13 02:30:20;;;;;;;;;;;14.90;88.80;;;;;;5073294;28;19934;-67
2023/06/13 02:32:52;;;;;;;;;;;14.90;88.70;;;;;;5075268;28;20402;-67
2023/06/13 02:35:24;;;;;;;;;;;14.90;88.60;;;;;;5063852;28;20402;-66
2023/06/13 02:37:54;;;;;;;;;;;14.80;89.40;;;;;;5079206;28;20677;-66
2023/06/13 02:40:27;;;;;;;;;;;14.80;88.80;;;;;;5079302;28;19924;-66
2023/06/13 02:43:00;;;;;;;;;;;14.80;88.70;;;;;;5082029;28;19924;-67
2023/06/13 02:45:32;;;;;;;;;;;14.70;88.70;;;;;;5085703;28;20441;-66
2023/06/13 02:48:04;;;;;;;;;;;14.70;88.80;;;;;;5072433;28;19931;-66
2023/06/13 02:50:36;;;;;;;;;;;14.70;88.60;;;;;;5074006;28;19963;-66
2023/06/13 02:53:08;;;;;;;;;;;14.70;88.70;;;;;;5075475;28;20308;-67
2023/06/13 02:55:44;;;;;;;;;;;14.70;89.00;;;;;;5076375;28;20021;-67
2023/06/13 02:58:16;;;;;;;;;;;14.60;88.50;;;;;;5068271;28;20398;-66
2023/06/13 03:00:50;;;;;;;;;;;14.60;88.50;;;;;;5079849;28;19928;-67
2023/06/13 03:03:23;;;;;;;;;;;14.60;88.60;;;;;;5078741;28;19935;-69
2023/06/13 03:06:24;;;;;;;;;;;14.60;88.60;;;;;;5037899;28;19930;-64
2023/06/13 03:09:00;;;;;;;;;;;14.60;88.60;;;;;;5008212;28;19932;-64
2023/06/13 03:11:32;;;;;;;;;;;14.60;88.70;;;;;;5045184;28;20373;-64
2023/06/13 03:14:04;;;;;;;;;;;14.50;88.60;;;;;;5029443;28;19925;-64
2023/06/13 03:16:31;;;;;;;;;;;14.50;88.50;;;;;;5029213;28;19939;-64
2023/06/13 03:19:03;;;;;;;;;;;14.60;88.50;;;;;;5038289;28;19936;-65
2023/06/13 03:21:36;;;;;;;;;;;14.50;88.90;;;;;;5026199;28;19924;-64
2023/06/13 03:24:08;;;;;;;;;;;14.50;88.90;;;;;;5040510;28;20389;-65
2023/06/13 03:26:40;;;;;;;;;;;14.40;88.80;;;;;;5057237;28;20039;-64
2023/06/13 03:29:11;;;;;;;;;;;14.40;89.10;;;;;;5039682;28;20308;-64
2023/06/13 03:31:43;;;;;;;;;;;14.40;89.10;;;;;;5043910;28;19971;-64
2023/06/13 03:34:15;;;;;;;;;;;14.50;89.40;;;;;;5046400;28;19925;-64
2023/06/13 03:36:47;;;;;;;;;;;14.40;89.40;;;;;;5046511;28;19972;-64
2023/06/13 03:39:19;;;;;;;;;;;14.30;89.50;;;;;;5026150;28;19976;-64
2023/06/13 03:41:51;;;;;;;;;;;14.30;89.80;;;;;;5041770;28;19929;-64
2023/06/13 03:44:23;;;;;;;;;;;14.30;89.70;;;;;;5057532;28;20016;-64
2023/06/13 03:46:56;;;;;;;;;;;14.30;89.50;;;;;;5055175;28;20381;-64
2023/06/13 03:49:23;;;;;;;;;;;14.20;89.10;;;;;;5055913;28;20382;-64
2023/06/13 03:51:55;;;;;;;;;;;14.20;89.20;;;;;;5055871;28;20020;-64
2023/06/13 03:54:27;;;;;;;;;;;14.20;89.20;;;;;;5031509;28;19930;-65
2023/06/13 03:56:59;;;;;;;;;;;14.20;89.40;;;;;;5026738;28;20397;-64
2023/06/13 03:59:30;;;;;;;;;;;14.20;89.30;;;;;;5043614;28;19929;-64
2023/06/13 04:02:03;;;;;;;;;;;14.20;89.80;;;;;;5042655;28;19933;-64
2023/06/13 04:04:35;;;;;;;;;;;14.20;90.10;;;;;;5049351;28;19956;-64
2023/06/13 04:07:07;;;;;;;;;;;14.10;90.10;;;;;;5058760;28;20348;-64
2023/06/13 04:09:39;;;;;;;;;;;14.10;90.10;;;;;;5037651;28;19931;-67
2023/06/13 04:12:11;;;;;;;;;;;14.10;90.30;;;;;;5056241;28;19975;-65
2023/06/13 04:14:43;;;;;;;;;;;14.10;90.30;;;;;;5025524;28;19972;-65
2023/06/13 04:17:15;;;;;;;;;;;14.20;90.30;;;;;;5030212;28;19932;-65
2023/06/13 04:19:50;;;;;;;;;;;14.20;90.30;;;;;;5029743;28;19964;-65
2023/06/13 04:22:22;;;;;;;;;;;14.30;90.30;;;;;;5042351;28;20196;-64
2023/06/13 04:24:54;;;;;;;;;;;14.30;90.50;;;;;;5054140;28;20024;-64
2023/06/13 04:27:28;;;;;;;;;;;14.30;90.50;;;;;;5041419;28;20388;-64
2023/06/13 04:30:00;;;;;;;;;;;14.30;90.30;;;;;;5043809;28;19929;-64
2023/06/13 04:32:34;;;;;;;;;;;14.30;90.30;;;;;;5041026;28;19933;-63
2023/06/13 04:35:07;;;;;;;;;;;14.30;90.20;;;;;;5057759;28;19925;-64
2023/06/13 04:37:35;;;;;;;;;;;14.30;90.50;;;;;;5027313;28;19964;-66
2023/06/13 04:40:05;;;;;;;;;;;14.40;90.40;;;;;;5027882;28;19972;-66
2023/06/13 04:42:37;;;;;;;;;;;14.30;90.20;;;;;;5058746;28;19925;-65
2023/06/13 04:45:04;;;;;;;;;;;14.20;90.10;;;;;;5027311;28;20577;-66
2023/06/13 04:47:36;;;;;;;;;;;14.30;90.30;;;;;;5029332;28;19955;-66
2023/06/13 04:50:08;;;;;;;;;;;14.20;90.20;;;;;;5055197;28;19936;-66
2023/06/13 04:52:35;;;;;;;;;;;14.30;90.10;;;;;;5019789;28;19947;-66
2023/06/13 04:55:03;;;;;;;;;;;14.30;90.40;;;;;;5019660;28;19934;-66
2023/06/13 04:57:31;;;;;;;;;;;14.30;89.80;;;;;;5022358;28;19928;-66
2023/06/13 05:00:09;;;;;;;;;;;14.40;89.70;;;;;;5015346;28;20012;-66
2023/06/13 05:02:41;;;;;;;;;;;14.40;89.80;;;;;;5044205;28;20016;-64
2023/06/13 05:05:16;;;;;;;;;;;14.40;90.10;;;;;;5024565;28;20519;-63
2023/06/13 05:07:49;;;;;;;;;;;14.50;89.00;;;;;;5037419;28;19961;-64
2023/06/13 05:10:22;;;;;;;;;;;14.50;88.70;;;;;;5040147;28;20047;-64
2023/06/13 05:12:54;;;;;;;;;;;14.50;88.90;;;;;;5019960;28;19929;-63
2023/06/13 05:15:21;;;;;;;;;;;14.50;88.80;;;;;;5019362;28;20342;-64
2023/06/13 05:17:52;;;;;;;;;;;14.60;88.60;;;;;;5020458;28;20020;-63
2023/06/13 05:20:26;;;;;;;;;;;14.60;88.20;;;;;;5034653;28;19925;-63
2023/06/13 05:23:00;;;;;;;;;;;14.70;88.10;;;;;;5021628;28;19925;-63
2023/06/13 05:25:32;;;;;;;;;;;14.70;89.30;;;;;;5033022;28;19949;-63
2023/06/13 05:28:04;;;;;;;;;;;14.70;87.00;;;;;;5033996;28;19936;-64
2023/06/13 05:30:36;;;;;;;;;;;14.80;86.00;;;;;;5050145;28;19931;-65
2023/06/13 05:33:08;;;;;;;;;;;14.80;86.60;;;;;;5059107;28;19926;-63
2023/06/13 05:35:40;;;;;;;;;;;14.80;85.50;;;;;;5032849;28;19925;-63
2023/06/13 05:38:12;;;;;;;;;;;14.80;85.10;;;;;;5048751;28;20020;-64
2023/06/13 05:40:44;;;;;;;;;;;14.90;85.80;;;;;;5035402;28;19929;-63
2023/06/13 05:43:12;;;;;;;;;;;14.90;84.40;;;;;;5033396;28;19931;-63
2023/06/13 05:45:44;;;;;;;;;;;15.00;84.30;;;;;;5043694;28;19933;-63
2023/06/13 05:48:16;;;;;;;;;;;15.00;84.60;;;;;;5030456;28;19929;-63
2023/06/13 05:50:47;;;;;;;;;;;15.10;83.80;;;;;;5047594;28;19939;-65
2023/06/13 05:53:19;;;;;;;;;;;15.20;84.10;;;;;;5035430;28;19979;-66
2023/06/13 05:55:51;;;;;;;;;;;15.30;83.50;;;;;;5033664;28;20011;-66
2023/06/13 05:58:23;;;;;;;;;;;15.30;82.80;;;;;;5031622;28;19925;-66
2023/06/13 06:00:57;;;;;;;;;;;15.30;82.30;;;;;;5033698;28;19940;-66
2023/06/13 06:03:30;;;;;;;;;;;15.40;82.10;;;;;;5034026;28;20572;-66
2023/06/13 06:06:01;;;;;;;;;;;15.40;82.50;;;;;;5028940;28;19987;-66
2023/06/13 06:08:33;;;;;;;;;;;15.50;82.20;;;;;;5062495;28;20297;-66
2023/06/13 06:11:00;;;;;;;;;;;15.60;81.80;;;;;;5034431;28;19929;-67
2023/06/13 06:13:33;;;;;;;;;;;15.60;81.10;;;;;;5051661;28;19961;-67
2023/06/13 06:16:00;;;;;;;;;;;15.60;80.80;;;;;;5049763;28;20024;-67
2023/06/13 06:18:31;;;;;;;;;;;15.70;80.50;;;;;;5031258;28;19925;-67
2023/06/13 06:21:03;;;;;;;;;;;15.70;80.00;;;;;;5031163;28;20374;-67
2023/06/13 06:23:37;;;;;;;;;;;15.70;80.30;;;;;;5047686;28;20319;-67
2023/06/13 06:26:09;;;;;;;;;;;15.80;80.30;;;;;;5030221;28;20484;-67
2023/06/13 06:28:41;;;;;;;;;;;15.80;80.20;;;;;;5060099;28;20297;-67
2023/06/13 06:31:13;;;;;;;;;;;15.90;80.30;;;;;;5046496;28;19933;-67
2023/06/13 06:33:45;;;;;;;;;;;16.00;80.40;;;;;;5061612;28;19929;-67
2023/06/13 06:36:17;;;;;;;;;;;16.10;80.90;;;;;;5046551;28;19932;-67
2023/06/13 06:38:44;;;;;;;;;;;16.10;78.90;;;;;;5030265;28;19935;-67
2023/06/13 06:41:11;;;;;;;;;;;16.20;77.40;;;;;;5027537;28;19932;-68
2023/06/13 06:43:43;;;;;;;;;;;16.20;77.40;;;;;;5057662;28;19929;-67
2023/06/13 06:46:15;;;;;;;;;;;16.30;77.60;;;;;;5060375;28;20016;-67
2023/06/13 06:48:47;;;;;;;;;;;16.30;77.30;;;;;;5027617;28;19935;-66
2023/06/13 06:51:14;;;;;;;;;;;16.40;77.70;;;;;;5028125;28;19931;-67
2023/06/13 06:53:45;;;;;;;;;;;16.40;76.90;;;;;;5026475;28;20382;-66
2023/06/13 06:56:17;;;;;;;;;;;16.50;76.40;;;;;;5044643;28;20285;-67
2023/06/13 06:58:49;;;;;;;;;;;16.60;76.80;;;;;;5036477;28;19937;-67
2023/06/13 07:01:22;;;;;;;;;;;16.70;75.70;;;;;;5051779;28;19926;-67
2023/06/13 07:03:49;;;;;;;;;;;16.80;75.80;;;;;;5026788;28;20460;-67
2023/06/13 07:06:21;;;;;;;;;;;16.90;74.70;;;;;;5057577;28;20349;-66
2023/06/13 07:08:53;;;;;;;;;;;17.00;74.60;;;;;;5058410;28;19932;-67
2023/06/13 07:11:25;;;;;;;;;;;17.00;74.30;;;;;;5059914;28;19926;-67
2023/06/13 07:13:57;;;;;;;;;;;17.10;74.60;;;;;;5027725;28;19931;-66
2023/06/13 07:16:29;;;;;;;;;;;17.20;75.20;;;;;;5026840;28;19932;-66
2023/06/13 07:19:01;;;;;;;;;;;17.30;74.70;;;;;;5032274;28;20411;-67
2023/06/13 07:21:32;;;;;;;;;;;17.40;72.50;;;;;;5045494;28;19929;-66
2023/06/13 07:24:04;;;;;;;;;;;17.50;72.50;;;;;;5026219;28;20011;-67
2023/06/13 07:26:36;;;;;;;;;;;17.60;72.50;;;;;;5031948;28;19931;-66
2023/06/13 07:29:08;;;;;;;;;;;17.70;70.50;;;;;;5029170;28;20440;-66
2023/06/13 07:31:39;;;;;;;;;;;17.70;70.30;;;;;;5058476;28;20400;-66
2023/06/13 07:34:11;;;;;;;;;;;17.80;70.90;;;;;;5058479;28;19933;-66
2023/06/13 07:36:43;;;;;;;;;;;17.90;71.30;;;;;;5020600;28;19932;-67
2023/06/13 07:39:15;;;;;;;;;;;17.90;69.90;;;;;;5023991;28;19929;-67
2023/06/13 07:41:46;;;;;;;;;;;18.00;68.50;;;;;;5031463;28;19929;-67
2023/06/13 07:44:18;;;;;;;;;;;18.20;69.90;;;;;;5031452;28;19926;-67
2023/06/13 07:46:50;;;;;;;;;;;18.20;68.70;;;;;;5057834;28;20312;-66
2023/06/13 07:49:17;;;;;;;;;;;18.30;68.50;;;;;;5027479;28;19991;-67
2023/06/13 07:51:50;;;;;;;;;;;18.40;68.40;;;;;;5042939;28;20484;-66
2023/06/13 07:54:21;;;;;;;;;;;18.40;68.50;;;;;;5027140;28;20377;-67
2023/06/13 07:56:54;;;;;;;;;;;18.60;68.90;;;;;;5027984;28;19925;-67
2023/06/13 07:59:26;;;;;;;;;;;18.70;68.70;;;;;;5027750;28;19971;-67
2023/06/13 08:01:58;;;;;;;;;;;18.80;67.70;;;;;;5031406;28;19925;-67
2023/06/13 08:04:29;;;;;;;;;;;18.90;66.40;;;;;;5028831;28;19931;-67
2023/06/13 08:06:59;;;;;;;;;;;19.00;65.80;;;;;;5043477;28;20597;-67
2023/06/13 08:09:31;;;;;;;;;;;19.10;66.80;;;;;;5029803;28;20342;-67
2023/06/13 08:12:02;;;;;;;;;;;19.20;65.10;;;;;;5029633;28;19951;-67
2023/06/13 08:14:34;;;;;;;;;;;19.30;64.70;;;;;;5049349;28;20282;-67
2023/06/13 08:17:06;;;;;;;;;;;19.30;65.40;;;;;;5053324;28;19929;-67
2023/06/13 08:19:38;;;;;;;;;;;19.40;64.50;;;;;;5024636;28;19968;-67
2023/06/13 08:22:10;;;;;;;;;;;19.50;65.00;;;;;;5050959;28;19925;-67
2023/06/13 08:24:42;;;;;;;;;;;19.70;65.20;;;;;;5023037;28;19929;-67
2023/06/13 08:27:18;;;;;;;;;;;19.80;65.80;;;;;;5030824;28;19964;-67
2023/06/13 08:29:51;;;;;;;;;;;19.90;66.40;;;;;;5025426;28;19936;-67
2023/06/13 08:32:17;;;;;;;;;;;20.00;66.30;;;;;;5027641;28;19932;-67
2023/06/13 08:34:49;;;;;;;;;;;20.10;62.80;;;;;;5041913;28;19935;-67
2023/06/13 08:37:21;;;;;;;;;;;20.20;62.20;;;;;;5027885;28;19956;-67
2023/06/13 08:39:53;;;;;;;;;;;20.20;62.80;;;;;;5054597;28;20415;-67
2023/06/13 08:42:25;;;;;;;;;;;20.30;62.70;;;;;;5022416;28;20305;-67
2023/06/13 08:44:58;;;;;;;;;;;20.30;61.40;;;;;;5021667;28;19932;-67
2023/06/13 08:47:29;;;;;;;;;;;20.40;62.80;;;;;;5023724;28;19936;-66
2023/06/13 08:49:56;;;;;;;;;;;20.50;59.90;;;;;;5026122;28;19972;-67
2023/06/13 08:52:38;;;;;;;;;;;20.50;60.10;;;;;;5047547;28;19931;-67
2023/06/13 08:55:17;;;;;;;;;;;20.60;60.20;;;;;;5043890;28;19929;-67
2023/06/13 08:57:47;;;;;;;;;;;20.60;59.70;;;;;;5022158;28;20413;-67
2023/06/13 09:00:19;;;;;;;;;;;20.70;60.10;;;;;;5021846;28;19929;-67
2023/06/13 09:02:52;;;;;;;;;;;20.60;58.80;;;;;;5026586;28;20015;-67
2023/06/13 09:05:24;;;;;;;;;;;20.70;60.10;;;;;;5024497;28;19925;-67
2023/06/13 09:07:58;;;;;;;;;;;20.80;59.80;;;;;;5050125;28;19929;-67
2023/06/13 09:10:31;;;;;;;;;;;20.80;58.40;;;;;;5047986;28;20401;-65
2023/06/13 09:12:58;;;;;;;;;;;20.90;59.00;;;;;;5057194;28;20023;-65
2023/06/13 09:15:30;;;;;;;;;;;21.10;58.60;;;;;;5027825;28;19929;-65
2023/06/13 09:18:02;;;;;;;;;;;21.10;58.20;;;;;;5057245;28;20461;-66
2023/06/13 09:20:34;;;;;;;;;;;21.20;56.40;;;;;;5057834;28;20462;-65
2023/06/13 09:23:06;;;;;;;;;;;21.20;56.70;;;;;;5020705;28;19925;-65
2023/06/13 09:25:38;;;;;;;;;;;21.30;57.80;;;;;;5037591;28;19944;-65
2023/06/13 09:28:27;;;;;;;;;;;21.40;59.10;;;;;;5016046;28;19929;-65
2023/06/13 09:30:59;;;;;;;;;;;21.50;60.00;;;;;;5056537;28;20008;-66
2023/06/13 09:33:31;;;;;;;;;;;21.60;58.80;;;;;;5022454;28;19925;-65
2023/06/13 09:36:04;;;;;;;;;;;21.80;60.10;;;;;;5024528;28;19940;-65
2023/06/13 09:38:40;;;;;;;;;;;21.90;59.30;;;;;;5026572;28;19936;-65
2023/06/13 09:41:12;;;;;;;;;;;22.00;59.40;;;;;;5040535;28;20121;-65
2023/06/13 09:43:40;;;;;;;;;;;22.10;58.10;;;;;;5020796;28;19925;-65
2023/06/13 09:46:14;;;;;;;;;;;22.00;57.40;;;;;;5021143;28;19936;-65
2023/06/13 09:48:46;;;;;;;;;;;22.00;57.90;;;;;;5022812;28;20480;-65
2023/06/13 09:51:20;;;;;;;;;;;22.10;57.50;;;;;;5051255;28;19925;-65
2023/06/13 09:53:52;;;;;;;;;;;22.20;57.90;;;;;;5018357;28;19925;-66
2023/06/13 09:56:23;;;;;;;;;;;22.30;58.90;;;;;;5016644;28;19925;-66
2023/06/13 09:58:50;;;;;;;;;;;22.40;57.60;;;;;;5025691;28;19934;-65
2023/06/13 10:01:23;;;;;;;;;;;22.40;55.90;;;;;;5028711;28;19925;-65
2023/06/13 10:03:55;;;;;;;;;;;22.40;57.00;;;;;;5028202;28;19936;-65
2023/06/13 10:06:29;;;;;;;;;;;22.50;57.80;;;;;;5062837;28;19933;-65
2023/06/13 10:09:01;;;;;;;;;;;22.60;57.20;;;;;;5059481;28;20011;-65
2023/06/13 10:11:36;;;;;;;;;;;22.60;57.60;;;;;;5027663;28;19925;-65
2023/06/13 10:14:10;;;;;;;;;;;22.70;56.40;;;;;;5043287;28;19932;-65
2023/06/13 10:16:47;;;;;;;;;;;22.80;56.00;;;;;;5030075;28;19925;-65
2023/06/13 10:19:19;;;;;;;;;;;22.90;57.10;;;;;;5029898;28;19929;-65
2023/06/13 10:21:52;;;;;;;;;;;23.00;54.70;;;;;;5036007;28;19926;-65
2023/06/13 10:24:24;;;;;;;;;;;23.10;54.80;;;;;;5025420;28;20405;-65
2023/06/13 10:26:57;;;;;;;;;;;23.20;55.00;;;;;;5036759;28;19930;-65
2023/06/13 10:29:48;;;;;;;;;;;23.30;52.80;;;;;;5046582;28;20344;-66
2023/06/13 10:32:19;;;;;;;;;;;23.30;52.60;;;;;;5042104;28;20415;-66
2023/06/13 10:35:10;;;;;;;;;;;23.30;51.40;;;;;;5030367;28;19932;-65
2023/06/13 10:37:44;;;;;;;;;;;23.30;52.50;;;;;;5028252;28;20411;-65
2023/06/13 10:40:25;;;;;;;;;;;23.40;51.10;;;;;;5050963;28;20530;-65
2023/06/13 10:43:07;;;;;;;;;;;23.50;51.10;;;;;;5029312;28;20370;-65
2023/06/13 10:45:41;;;;;;;;;;;23.60;52.10;;;;;;5018409;28;20297;-65
2023/06/13 10:48:13;;;;;;;;;;;23.70;52.00;;;;;;5043911;28;19936;-65
2023/06/13 10:50:45;;;;;;;;;;;23.90;52.20;;;;;;5024308;28;19948;-65
2023/06/13 10:53:43;;;;;;;;;;;23.80;50.50;;;;;;5026665;28;19933;-65
2023/06/13 10:56:15;;;;;;;;;;;23.90;50.80;;;;;;5025273;28;19925;-65
2023/06/13 10:58:47;;;;;;;;;;;24.10;51.80;;;;;;5030217;28;20324;-63
2023/06/13 11:01:25;;;;;;;;;;;24.20;49.60;;;;;;5025004;28;19933;-65
2023/06/13 11:04:09;;;;;;;;;;;24.20;49.80;;;;;;5024135;28;19925;-66
2023/06/13 11:06:41;;;;;;;;;;;24.30;51.00;;;;;;5029929;28;19925;-65
2023/06/13 11:09:14;;;;;;;;;;;24.50;50.50;;;;;;5039750;28;19932;-65
2023/06/13 11:11:46;;;;;;;;;;;24.60;48.20;;;;;;5021382;28;19979;-65
2023/06/13 11:14:13;;;;;;;;;;;24.60;48.90;;;;;;5027756;28;19925;-66
2023/06/13 11:16:40;;;;;;;;;;;24.60;49.90;;;;;;5025007;28;19929;-65
2023/06/13 11:19:13;;;;;;;;;;;24.50;49.10;;;;;;5025220;28;19929;-65
2023/06/13 11:21:46;;;;;;;;;;;24.40;49.50;;;;;;5029115;28;20375;-65
2023/06/13 11:24:18;;;;;;;;;;;24.30;48.50;;;;;;5058178;28;20010;-66
2023/06/13 11:26:51;;;;;;;;;;;24.40;50.70;;;;;;5025523;28;20004;-63
2023/06/13 11:29:23;;;;;;;;;;;24.60;47.90;;;;;;5026317;28;19929;-63
2023/06/13 11:31:55;;;;;;;;;;;24.80;46.10;;;;;;5020719;28;19936;-63
2023/06/13 11:34:34;;;;;;;;;;;24.90;47.60;;;;;;5019254;28;19925;-63
2023/06/13 11:37:20;;;;;;;;;;;25.00;46.60;;;;;;5046990;28;20373;-63
2023/06/13 11:39:54;;;;;;;;;;;25.10;47.60;;;;;;5017178;28;20477;-63
2023/06/13 11:42:21;;;;;;;;;;;25.20;46.40;;;;;;5025129;28;20401;-63
2023/06/13 11:44:48;;;;;;;;;;;25.30;47.10;;;;;;5024909;28;19960;-63
2023/06/13 11:47:20;;;;;;;;;;;25.40;48.00;;;;;;5043379;28;19925;-63
2023/06/13 11:49:56;;;;;;;;;;;25.40;46.20;;;;;;5024482;28;19931;-63
2023/06/13 11:52:27;;;;;;;;;;;25.50;46.10;;;;;;5024877;28;19957;-63
2023/06/13 11:54:59;;;;;;;;;;;25.60;44.60;;;;;;5050367;28;20352;-63
2023/06/13 11:57:46;;;;;;;;;;;25.50;45.50;;;;;;5023152;28;19926;-63
2023/06/13 12:00:14;;;;;;;;;;;25.60;45.80;;;;;;5024928;28;19933;-64
2023/06/13 12:02:41;;;;;;;;;;;25.60;45.90;;;;;;5028157;28;20016;-63
2023/06/13 12:05:11;;;;;;;;;;;25.60;46.00;;;;;;5025414;28;19928;-65
2023/06/13 12:07:39;;;;;;;;;;;25.70;44.30;;;;;;5028394;28;20435;-65
2023/06/13 12:10:13;;;;;;;;;;;25.80;44.40;;;;;;5029022;28;19940;-66
2023/06/13 12:12:57;;;;;;;;;;;25.90;44.60;;;;;;5026040;28;19932;-66
2023/06/13 12:15:29;;;;;;;;;;;25.90;45.80;;;;;;5027987;28;19925;-66
2023/06/13 12:18:02;;;;;;;;;;;26.10;44.50;;;;;;5024684;28;19936;-66
2023/06/13 12:20:45;;;;;;;;;;;26.30;44.60;;;;;;5024528;28;19930;-65
2023/06/13 12:23:17;;;;;;;;;;;26.40;44.20;;;;;;5026588;28;19933;-65
2023/06/13 12:25:50;;;;;;;;;;;26.50;44.90;;;;;;5025010;28;20952;-66
2023/06/13 12:28:22;;;;;;;;;;;26.60;44.80;;;;;;5024975;28;20424;-63
2023/06/13 12:30:51;;;;;;;;;;;26.60;44.40;;;;;;5042672;28;19929;-63
2023/06/13 12:33:19;;;;;;;;;;;26.70;44.70;;;;;;5027318;28;19991;-63
2023/06/13 12:35:57;;;;;;;;;;;26.70;45.00;;;;;;5027283;28;19951;-63
2023/06/13 12:38:29;;;;;;;;;;;26.80;45.10;;;;;;5026381;28;19948;-66
2023/06/13 12:41:11;;;;;;;;;;;26.90;45.80;;;;;;5027114;28;20324;-66
2023/06/13 12:43:43;;;;;;;;;;;27.00;45.50;;;;;;5026427;28;19925;-65
2023/06/13 12:46:11;;;;;;;;;;;26.90;45.80;;;;;;5024745;28;19979;-66
2023/06/13 12:48:42;;;;;;;;;;;26.70;47.30;;;;;;5052974;28;20044;-66
2023/06/13 12:51:42;;;;;;;;;;;26.70;46.30;;;;;;5024736;28;19929;-64
2023/06/13 12:54:17;;;;;;;;;;;26.80;45.80;;;;;;5022327;28;19925;-66
2023/06/13 12:56:50;;;;;;;;;;;26.90;46.00;;;;;;5027388;28;19926;-66
2023/06/13 12:59:31;;;;;;;;;;;27.10;46.00;;;;;;5025830;28;20311;-65
2023/06/13 13:02:07;;;;;;;;;;;27.10;45.80;;;;;;5025834;28;20432;-66
2023/06/13 13:04:34;;;;;;;;;;;27.10;45.20;;;;;;5027126;28;19947;-64
2023/06/13 13:07:07;;;;;;;;;;;27.10;45.60;;;;;;5025709;28;20039;-66
2023/06/13 13:09:40;;;;;;;;;;;27.10;45.90;;;;;;5058511;28;20004;-65
2023/06/13 13:12:13;;;;;;;;;;;27.10;44.70;;;;;;5041608;28;19929;-65
2023/06/13 13:14:45;;;;;;;;;;;27.00;44.40;;;;;;5019983;28;19932;-65
2023/06/13 13:17:16;;;;;;;;;;;27.20;45.20;;;;;;5056664;28;19929;-66
2023/06/13 13:19:43;;;;;;;;;;;27.30;44.20;;;;;;5026513;28;19944;-65
2023/06/13 13:22:15;;;;;;;;;;;27.60;44.50;;;;;;5029232;28;20405;-66
2023/06/13 13:24:47;;;;;;;;;;;27.70;43.80;;;;;;5024747;28;19925;-65
2023/06/13 13:27:19;;;;;;;;;;;27.60;43.50;;;;;;5028640;28;19935;-66
2023/06/13 13:29:51;;;;;;;;;;;27.70;43.00;;;;;;5026060;28;19947;-66
2023/06/13 13:32:23;;;;;;;;;;;27.90;43.80;;;;;;5027046;28;20032;-66
2023/06/13 13:34:54;;;;;;;;;;;28.10;43.40;;;;;;5042902;28;20397;-66
2023/06/13 13:37:26;;;;;;;;;;;28.20;43.30;;;;;;5029204;28;19933;-66
2023/06/13 13:39:58;;;;;;;;;;;28.50;43.50;;;;;;5027847;28;19924;-66
2023/06/13 13:42:36;;;;;;;;;;;28.50;42.80;;;;;;5059474;28;19932;-66
2023/06/13 13:45:08;;;;;;;;;;;28.60;41.50;;;;;;5065359;28;19929;-65
2023/06/13 13:47:35;;;;;;;;;;;28.70;41.90;;;;;;5046713;28;19929;-66
2023/06/13 13:50:02;;;;;;;;;;;28.80;42.10;;;;;;5030191;28;19987;-66
2023/06/13 13:52:29;;;;;;;;;;;28.70;42.00;;;;;;5032509;28;19925;-65
2023/06/13 13:55:03;;;;;;;;;;;28.60;41.60;;;;;;5028881;28;19933;-66
2023/06/13 13:57:37;;;;;;;;;;;28.30;42.70;;;;;;5061059;28;20363;-66
2023/06/13 14:00:09;;;;;;;;;;;28.30;41.90;;;;;;5026346;28;19987;-66
2023/06/13 14:02:36;;;;;;;;;;;28.40;42.50;;;;;;5031168;28;19931;-66
2023/06/13 14:05:08;;;;;;;;;;;28.50;42.30;;;;;;5030448;28;19929;-66
2023/06/13 14:07:39;;;;;;;;;;;28.60;42.40;;;;;;5032878;28;19940;-66
2023/06/13 14:10:11;;;;;;;;;;;28.80;41.20;;;;;;5030401;28;19933;-66
2023/06/13 14:12:43;;;;;;;;;;;28.80;40.80;;;;;;5046761;28;19979;-65
2023/06/13 14:15:15;;;;;;;;;;;28.90;41.00;;;;;;5031244;28;19931;-66
2023/06/13 14:17:47;;;;;;;;;;;29.00;40.80;;;;;;5032646;28;19925;-66
2023/06/13 14:20:19;;;;;;;;;;;28.70;40.90;;;;;;5031869;28;19936;-66
2023/06/13 14:22:51;;;;;;;;;;;28.80;40.60;;;;;;5045921;28;19924;-66
2023/06/13 14:25:22;;;;;;;;;;;28.80;39.40;;;;;;5046933;28;20020;-66
2023/06/13 14:27:55;;;;;;;;;;;28.90;39.00;;;;;;5024721;28;20079;-66
2023/06/13 14:30:27;;;;;;;;;;;29.00;38.60;;;;;;5057975;28;20023;-65
2023/06/13 14:32:59;;;;;;;;;;;28.80;39.10;;;;;;5044870;28;20636;-66
2023/06/13 14:35:31;;;;;;;;;;;28.70;40.20;;;;;;5028294;28;20067;-66
2023/06/13 14:38:03;;;;;;;;;;;28.90;41.00;;;;;;5059425;28;19925;-66
2023/06/13 14:40:35;;;;;;;;;;;29.10;40.60;;;;;;5029716;28;19936;-66
2023/06/13 14:43:07;;;;;;;;;;;29.10;40.00;;;;;;5045237;28;19932;-65
2023/06/13 14:45:39;;;;;;;;;;;29.20;40.70;;;;;;5025830;28;19936;-66
2023/06/13 14:48:10;;;;;;;;;;;29.20;39.10;;;;;;5032202;28;19937;-65